Portada
METAR-TAF:

METAR-TAF

Aeroports :

Mogadixo, Somàlia

latitud: 02-02N, longitud: 045-21E, altitud: 9 m

Observació

L'informe es va fer fa 12 hores i 41 minuts, a les 14:00 UTC
Vent 11 kt del Est
Temperatura 29°C
Humitat 74%
Pressió 1009 hPa
Visibilitat 10 km o més
Escasses núvols a una alçada de 2200 ft

METAR: HCMM 031400Z 09011KT 9999 FEW022 29/24 Q1009

Hora: 05:41 (02:41 UTC)

Pronòstic

L'informe es va fer fa 15 hores i 41 minuts, a les 11:00 UTC
Pronòstic vàlid del 03 a les 12 UTC al 04 a les 18 UTC
Vent 13 kt del Est/Sud-Est
Visibilitat 10 km o més
Núvols disperses a una alçada de 2500 ft
Evolucionant progressivament
l' 04 a les 00 UTC al 04 a les 03 UTC
Vent 8 kt del Est/Nord-Est
Cel ennuvolat a una alçada de 1900 ft
Evolucionant progressivament
l' 04 a les 08 UTC al 04 a les 11 UTC
Vent 12 kt del Est
Núvols disperses a una alçada de 2400 ft

TAF: HCMM 031100Z 0312/0418 11013KT 9999 SCT025 BECMG 0400/0403 07008KT BKN019 BECMG 0408/0411 08012KT SCT024

Observacions i pronòstics meteorològics de més de 4000 aeroports (METAR i TAF).

Les estacions disponibles són els punts grocs i vermells al mapa.

Posi el ratolí al punt desitjat per veure el nom de l'estació.

Feu clic per veure les observacions i els pronòstics meteorològics.

Per canviar el mapa: feu clic els botons verds amb una creu de color negre per apropar; al botó verd amb un guió per allunyar la imatge; o en les fletxes verdes per a mapes adjacents.


METAR-TAF: